x

Venice, Fl (venf1) Weather Station

12:00pm - Wed 20th Aug 2014 All times are EDT. -4 hours from GMT.

  • Wind
    9mph, 11mph gusts
  • Sea Temp 89°f
  • Air Temp 86°f
  • Sea Pressure 1019.1mb
  • Venice, Fl
  • Venice, Fl

More Historic Weather Station data

Upgrade to MSW Pro to gain access to the past 30 days of data for over 8000 Wavebouys and Weather Stations around the globe.

Join Pro

Comparision Forecast

View Surf forecast
   
Wed 08/20 12:00pm 9 11 mph 1019.1mb 89f 86f
11:00am 9 10 mph 1019.1mb 89f 86f
10:00am 5 6 mph 1018.7mb 89f 86f
9:00am 5 6 mph 1018mb 89f 83f
8:00am 6 7 mph 1017.2mb 89f 81f
7:00am 5 6 mph 1016.8mb 89f 80f
6:00am 6
mph
1016.2mb 89f 80f
5:00am 6 7 mph 1015.8mb 90f 80f
4:00am 5
mph
1015.5mb 90f 82f
3:00am 2 3 mph 1015.7mb 90f 83f
2:00am 3
mph
1015.8mb 90f 82f
1:00am 6 7 mph 1016.2mb 90f 86f
12:00am 5 6 mph 1016.4mb 90f 86f
Tue 08/19 11:00pm 9 10 mph 1016.5mb 91f 87f
10:00pm 7 9 mph 1016.1mb 91f 86f
9:00pm 9 10 mph 1015.4mb 91f 87f
8:00pm 10 11 mph 1015.2mb 91f 87f
7:00pm 10 11 mph 1015.3mb 91f 87f
6:00pm 9 10 mph 1015.1mb 91f 87f
5:00pm 10 13 mph 1015.2mb 91f 87f
4:00pm 10 11 mph 1015.3mb 91f 87f
3:00pm 10 11 mph 1015.8mb 91f 87f
2:00pm 8 9 mph 1016.4mb 90f 86f
1:00pm 8 9 mph 1017mb 89f 87f
12:00pm 6 7 mph 1017.2mb 89f 87f
11:00am 3 5 mph 1017.3mb 89f 87f
10:00am 2 3 mph 1017.5mb 89f 85f
9:00am 3 5 mph 1017.2mb 89f 84f
8:00am 5 6 mph 1016.8mb 89f 80f
7:00am 6 7 mph 1016.1mb 89f 79f
6:00am 5 6 mph 1015.6mb 89f 80f
5:00am 6 7 mph 1015.5mb 90f 79f
4:00am 6 7 mph 1014.9mb 90f 80f
3:00am 6 7 mph 1015.2mb 90f 81f
2:00am 6
mph
1015.6mb 90f 81f
1:00am 3
mph
1015.8mb 90f 83f
12:00am 3 6 mph 1015.8mb 90f 86f
Mon 08/18 11:00pm 7 8 mph 1015.6mb 91f 86f
10:00pm 7 8 mph 1015.8mb 91f 86f
9:00pm 8 9 mph 1015.9mb 91f 86f
8:00pm 7 8 mph 1015.7mb 91f 86f
7:00pm 10 11 mph 1015.5mb 91f 87f
6:00pm 9
mph
1015.4mb 91f 87f
5:00pm 6 8 mph 1015.3mb 91f 87f
4:00pm 9 10 mph 1015.5mb 91f 87f
3:00pm 8 9 mph 1016.5mb 90f 87f
2:00pm 7 8 mph 1017mb 90f 87f
1:00pm 7 8 mph 1017.4mb 90f 87f
12:00pm 6 7 mph 1017.8mb 89f 86f
11:00am 3 5 mph 1017.9mb 89f 87f
10:00am 1 3 mph 1017.9mb 89f 86f
9:00am 3 5 mph 1017.9mb 89f 84f
8:00am 5 6 mph 1017.5mb 89f 81f
7:00am 6
mph
1016.8mb 89f 79f
6:00am 5 6 mph 1016.6mb 89f 79f
5:00am 6 7 mph 1016.5mb 89f 79f
4:00am 3 5 mph 1016.7mb 89f 80f
3:00am 6
mph
1017.2mb 89f 81f
2:00am 6
mph
1017.8mb 90f 80f
1:00am 5
mph
1018.4mb 90f 82f
12:00am 3
mph
1018.6mb 90f 83f
Sun 08/17 11:00pm 8
mph
1018.5mb 90f 87f
10:00pm 6 7 mph 1017.8mb 90f 87f
9:00pm 7 8 mph 1017.4mb 90f 87f
8:00pm 8 9 mph 1017.4mb 90f 87f
7:00pm 7 8 mph 1017.4mb 90f 86f
6:00pm 7
mph
1017mb 90f 87f
5:00pm 6 8 mph 1017.2mb 90f 87f
4:00pm 5 6 mph 1017.4mb 90f 87f
3:00pm 5 6 mph 1018.1mb 90f 86f
2:00pm 7 8 mph 1019mb 89f 86f
1:00pm 8 9 mph 1019.3mb 89f 86f
12:00pm 7 8 mph 1019.4mb 88f 85f
11:00am 8 9 mph 1019.7mb 88f 85f
10:00am 2 3 mph 1019.4mb 88f 86f
9:00am  -  3 mph 1019.2mb 88f 84f
8:00am 6 7 mph 1019.1mb 87f 80f
7:00am 3
mph
1018.6mb 88f 78f
6:00am 5
mph
1017.8mb 88f 79f
5:00am 8 10 mph 1017.6mb 88f 79f
4:00am 8 9 mph 1017.3mb 88f 79f
3:00am 8 10 mph 1017.7mb 88f 80f
2:00am 6 7 mph 1018.3mb 88f 79f
1:00am 6 7 mph 1018.8mb 88f 80f
12:00am 6 7 mph 1018.9mb 88f 80f
Sat 08/16 11:00pm 3
mph
1019mb 89f 84f
10:00pm 2
mph
1018.6mb 89f 84f
9:00pm 2
mph
1018.1mb 89f 84f
8:00pm 2
mph
1018mb 89f 85f
7:00pm 2
mph
1017.9mb 89f 86f
6:00pm 6 7 mph 1017.9mb 89f 85f